This is the latest recevied weather packets stored in our database for station/object DK4EP-10. If no packets are shown the sender has not sent any weather packets the latest 10 day(s).
| Time | Temp. | Humidity | Pressure | Rain* | Wind** | Luminosity | Snow |
|---|---|---|---|---|---|---|---|
| 1777490093 | 3.33° C | 72% | 1007 hPa | - | - | - | - |
| 1777489192 | 5° C | 66% | 1007 hPa | - | - | - | - |
| 1777488291 | 6.11° C | 56% | 1007 hPa | - | - | - | - |
| 1777487390 | 6.67° C | 51% | 1006 hPa | - | - | - | - |
| 1777486488 | 7.78° C | 48% | 1006 hPa | - | - | - | - |
| 1777485587 | 8.33° C | 46% | 1006 hPa | - | - | - | - |
| 1777484686 | 8.89° C | 44% | 1006 hPa | - | - | - | - |
| 1777483785 | 9.44° C | 43% | 1006 hPa | - | - | - | - |
| 1777482884 | 10° C | 43% | 1006 hPa | - | - | - | - |
| 1777481983 | 11.11° C | 41% | 1005 hPa | - | - | - | - |
| 1777481082 | 11.67° C | 42% | 1005 hPa | - | - | - | - |
| 1777480180 | 13.89° C | 38% | 1005 hPa | - | - | - | - |
| 1777479279 | 17.22° C | 33% | 1005 hPa | - | - | - | - |
| 1777478378 | 16.67° C | 34% | 1005 hPa | - | - | - | - |
| 1777477477 | 17.22° C | 36% | 1005 hPa | - | - | - | - |
| 1777476575 | 16.11° C | 38% | 1005 hPa | - | - | - | - |
| 1777475674 | 16.11° C | 37% | 1005 hPa | - | - | - | - |
| 1777474773 | 16.11° C | 37% | 1005 hPa | - | - | - | - |
| 1777473872 | 16.11° C | 35% | 1005 hPa | - | - | - | - |
| 1777472971 | 16.67° C | 37% | 1005 hPa | - | - | - | - |
| 1777472069 | 16.11° C | 41% | 1005 hPa | - | - | - | - |
| 1777471168 | 16.11° C | 37% | 1005 hPa | - | - | - | - |
| 1777470267 | 16.11° C | 37% | 1005 hPa | - | - | - | - |
| 1777469366 | 15.56° C | 40% | 1005 hPa | - | - | - | - |
| 1777468465 | 15° C | 40% | 1005 hPa | - | - | - | - |
* Rain since midnight (hover to see other rain measurements)
** Current wind speed in m/s (hover to see current wind gust speed)